CES0319 ZSFZ-ZSPD
Flight info
| Callsign | CES0319 |
|---|---|
| Flight time | N/A |
| Altitude | 24600 |
| Route | K0763S0750 DCT LJG B221 DST/K0857S1070 B221 SHZ W58 XSY DCT |
| Aircraft | B738/M-SDE2E3FGHIRWXY/LB1 |
Departure
| Time | 2026-05-05 13:32 |
|---|---|
| Airport | Fuzhou Changle International Airport (ZSFZ) |
Arrival
| Time | N/A |
|---|---|
| Airport | Shanghai Pudong International Airport (ZSPD) |
| Time | Latitude | Longitude | Altitude | Speed | Heading |
|---|---|---|---|---|---|
| 2026-05-05 13:11 | 25.93387 | 119.66827 | 55 ft | 0 kts | 117° |
| 2026-05-05 13:19 | 25.93389 | 119.66824 | 55 ft | 2 kts | 118° |
| 2026-05-05 13:19 | 25.93396 | 119.66809 | 55 ft | 2 kts | 117° |
| 2026-05-05 13:19 | 25.93403 | 119.66795 | 55 ft | 2 kts | 117° |
| 2026-05-05 13:19 | 25.93409 | 119.66780 | 55 ft | 2 kts | 118° |
| 2026-05-05 13:20 | 25.93417 | 119.66765 | 55 ft | 2 kts | 137° |
| 2026-05-05 13:20 | 25.93430 | 119.66757 | 55 ft | 2 kts | 165° |
| 2026-05-05 13:20 | 25.93445 | 119.66756 | 55 ft | 2 kts | 195° |
| 2026-05-05 13:20 | 25.93453 | 119.66760 | 55 ft | 1 kts | 211° |
| 2026-05-05 13:21 | 25.93457 | 119.66763 | 55 ft | 0 kts | 208° |
| 2026-05-05 13:23 | 25.93455 | 119.66761 | 55 ft | 0 kts | 208° |
| 2026-05-05 13:23 | 25.93446 | 119.66756 | 55 ft | 1 kts | 208° |
| 2026-05-05 13:23 | 25.93433 | 119.66748 | 55 ft | 2 kts | 208° |
| 2026-05-05 13:23 | 25.93418 | 119.66740 | 55 ft | 2 kts | 208° |
| 2026-05-05 13:24 | 25.93401 | 119.66729 | 55 ft | 2 kts | 208° |
| 2026-05-05 13:24 | 25.93383 | 119.66719 | 55 ft | 2 kts | 208° |
| 2026-05-05 13:24 | 25.93365 | 119.66708 | 55 ft | 2 kts | 209° |
| 2026-05-05 13:24 | 25.93350 | 119.66695 | 55 ft | 2 kts | 230° |
| 2026-05-05 13:25 | 25.93341 | 119.66673 | 55 ft | 4 kts | 257° |
| 2026-05-05 13:25 | 25.93329 | 119.66605 | 55 ft | 11 kts | 230° |
| 2026-05-05 13:25 | 25.93264 | 119.66566 | 55 ft | 10 kts | 205° |
| 2026-05-05 13:25 | 25.93192 | 119.66525 | 55 ft | 14 kts | 208° |
| 2026-05-05 13:26 | 25.93079 | 119.66460 | 55 ft | 18 kts | 207° |
| 2026-05-05 13:26 | 25.92966 | 119.66396 | 55 ft | 17 kts | 207° |
| 2026-05-05 13:26 | 25.92860 | 119.66336 | 55 ft | 16 kts | 207° |
| 2026-05-05 13:26 | 25.92762 | 119.66280 | 55 ft | 15 kts | 207° |
| 2026-05-05 13:27 | 25.92671 | 119.66229 | 55 ft | 13 kts | 207° |
| 2026-05-05 13:27 | 25.92588 | 119.66183 | 55 ft | 12 kts | 207° |
| 2026-05-05 13:27 | 25.92512 | 119.66141 | 55 ft | 11 kts | 207° |
| 2026-05-05 13:27 | 25.92463 | 119.66090 | 55 ft | 8 kts | 264° |
| 2026-05-05 13:28 | 25.92475 | 119.66032 | 55 ft | 6 kts | 272° |
| 2026-05-05 13:28 | 25.92461 | 119.65994 | 55 ft | 4 kts | 206° |
| 2026-05-05 13:28 | 25.92436 | 119.65980 | 55 ft | 3 kts | 207° |
| 2026-05-05 13:28 | 25.92395 | 119.65957 | 55 ft | 12 kts | 208° |
| 2026-05-05 13:29 | 25.92292 | 119.65898 | 55 ft | 17 kts | 207° |
| 2026-05-05 13:29 | 25.92189 | 119.65840 | 55 ft | 16 kts | 207° |
| 2026-05-05 13:29 | 25.92092 | 119.65786 | 55 ft | 14 kts | 207° |
| 2026-05-05 13:29 | 25.92005 | 119.65735 | 55 ft | 13 kts | 220° |
| 2026-05-05 13:30 | 25.91994 | 119.65652 | 55 ft | 11 kts | 295° |
| 2026-05-05 13:30 | 25.92027 | 119.65580 | 55 ft | 8 kts | 302° |
| 2026-05-05 13:30 | 25.92075 | 119.65560 | 55 ft | 6 kts | 358° |
| 2026-05-05 13:30 | 25.92114 | 119.65572 | 55 ft | 5 kts | 28° |
| 2026-05-05 13:31 | 25.92143 | 119.65589 | 55 ft | 4 kts | 27° |
| 2026-05-05 13:31 | 25.92238 | 119.65642 | 55 ft | 36 kts | 27° |
| 2026-05-05 13:31 | 25.92646 | 119.65873 | 55 ft | 103 kts | 27° |
| 2026-05-05 13:31 | 25.93528 | 119.66369 | 150 ft | 168 kts | 27° |
| 2026-05-05 13:32 | 25.94566 | 119.66958 | 1017 ft | 176 kts | 27° |
| 2026-05-05 13:32 | 25.95709 | 119.67554 | 1871 ft | 195 kts | 26° |
| 2026-05-05 13:32 | 25.97026 | 119.68213 | 2363 ft | 218 kts | 26° |
| 2026-05-05 13:32 | 25.98430 | 119.68890 | 3075 ft | 229 kts | 26° |
| 2026-05-05 13:33 | 25.99905 | 119.69614 | 3837 ft | 238 kts | 27° |
| 2026-05-05 13:33 | 26.01435 | 119.70400 | 4641 ft | 245 kts | 27° |
| 2026-05-05 13:33 | 26.02989 | 119.71207 | 5437 ft | 251 kts | 24° |
| 2026-05-05 13:33 | 26.04548 | 119.71783 | 6174 ft | 257 kts | 10° |
| 2026-05-05 13:34 | 26.06253 | 119.71924 | 6967 ft | 259 kts | 355° |
| 2026-05-05 13:34 | 26.08030 | 119.71680 | 7808 ft | 259 kts | 346° |
| 2026-05-05 13:34 | 26.09742 | 119.71162 | 8611 ft | 259 kts | 335° |
| 2026-05-05 13:34 | 26.11328 | 119.70222 | 9429 ft | 257 kts | 321° |
| 2026-05-05 13:35 | 26.12633 | 119.68922 | 10276 ft | 253 kts | 307° |
| 2026-05-05 13:35 | 26.13688 | 119.67363 | 11054 ft | 253 kts | 301° |
| 2026-05-05 13:35 | 26.14661 | 119.65770 | 11813 ft | 254 kts | 301° |
| 2026-05-05 13:35 | 26.15687 | 119.64158 | 12532 ft | 257 kts | 302° |
| 2026-05-05 13:36 | 26.16747 | 119.62575 | 13314 ft | 257 kts | 303° |
| 2026-05-05 13:36 | 26.17827 | 119.60992 | 13990 ft | 260 kts | 302° |
| 2026-05-05 13:36 | 26.18945 | 119.59414 | 14624 ft | 265 kts | 306° |
| 2026-05-05 13:36 | 26.20350 | 119.58035 | 15226 ft | 278 kts | 323° |
| 2026-05-05 13:37 | 26.22216 | 119.57269 | 15820 ft | 296 kts | 344° |
| 2026-05-05 13:37 | 26.24337 | 119.57239 | 16321 ft | 314 kts | 0° |
| 2026-05-05 13:37 | 26.26520 | 119.57864 | 16615 ft | 339 kts | 18° |
| 2026-05-05 13:37 | 26.28674 | 119.59124 | 16977 ft | 356 kts | 27° |
| 2026-05-05 13:38 | 26.30821 | 119.60654 | 17258 ft | 372 kts | 29° |
| 2026-05-05 13:38 | 26.33005 | 119.62277 | 17506 ft | 388 kts | 30° |
| 2026-05-05 13:38 | 26.35319 | 119.63979 | 17739 ft | 402 kts | 29° |
| 2026-05-05 13:38 | 26.37687 | 119.65691 | 17996 ft | 416 kts | 29° |
| 2026-05-05 13:39 | 26.40155 | 119.67449 | 18253 ft | 429 kts | 28° |
| 2026-05-05 13:39 | 26.42745 | 119.69275 | 18457 ft | 443 kts | 28° |
| 2026-05-05 13:39 | 26.45385 | 119.71120 | 18630 ft | 457 kts | 28° |
| 2026-05-05 13:39 | 26.48105 | 119.73017 | 18780 ft | 470 kts | 28° |
| 2026-05-05 13:40 | 26.50907 | 119.74980 | 19061 ft | 480 kts | 29° |
| 2026-05-05 13:40 | 26.53745 | 119.76981 | 19529 ft | 485 kts | 28° |
| 2026-05-05 13:40 | 26.56623 | 119.79015 | 20099 ft | 487 kts | 28° |
| 2026-05-05 13:40 | 26.59465 | 119.81017 | 20591 ft | 491 kts | 28° |
| 2026-05-05 13:41 | 26.62373 | 119.83065 | 21024 ft | 496 kts | 28° |
| 2026-05-05 13:41 | 26.65319 | 119.85139 | 21511 ft | 500 kts | 28° |
| 2026-05-05 13:41 | 26.68273 | 119.87221 | 22000 ft | 503 kts | 28° |
| 2026-05-05 13:41 | 26.71219 | 119.89296 | 22460 ft | 507 kts | 28° |
| 2026-05-05 13:42 | 26.74234 | 119.91421 | 22853 ft | 513 kts | 28° |
| 2026-05-05 13:42 | 26.77265 | 119.93559 | 23377 ft | 515 kts | 28° |
| 2026-05-05 13:42 | 26.80249 | 119.95667 | 24106 ft | 511 kts | 28° |
| 2026-05-05 13:42 | 26.83267 | 119.97804 | 24538 ft | 512 kts | 28° |
| 2026-05-05 13:43 | 26.86300 | 119.99948 | 24660 ft | 514 kts | 28° |
| 2026-05-05 13:43 | 26.89287 | 120.02063 | 24665 ft | 512 kts | 28° |
| 2026-05-05 13:43 | 26.92306 | 120.04204 | 24667 ft | 511 kts | 28° |
| 2026-05-05 13:43 | 26.95323 | 120.06344 | 24689 ft | 513 kts | 28° |
| 2026-05-05 13:44 | 26.98335 | 120.08482 | 24682 ft | 510 kts | 28° |
| 2026-05-05 13:44 | 27.01318 | 120.10600 | 24673 ft | 508 kts | 28° |
| 2026-05-05 13:44 | 27.04332 | 120.12740 | 24675 ft | 509 kts | 28° |
| 2026-05-05 13:44 | 27.07317 | 120.14861 | 24673 ft | 510 kts | 28° |
| 2026-05-05 13:45 | 27.10307 | 120.16985 | 24673 ft | 511 kts | 28° |
| 2026-05-05 13:45 | 27.13357 | 120.19155 | 24671 ft | 509 kts | 28° |
| 2026-05-05 13:45 | 27.16306 | 120.21250 | 24673 ft | 508 kts | 28° |
| 2026-05-05 13:45 | 27.19301 | 120.23367 | 24676 ft | 508 kts | 28° |
| 2026-05-05 13:46 | 27.22298 | 120.25481 | 24670 ft | 509 kts | 28° |
| 2026-05-05 13:46 | 27.25304 | 120.27599 | 24673 ft | 508 kts | 28° |
| 2026-05-05 13:46 | 27.28295 | 120.29706 | 24670 ft | 509 kts | 28° |
| 2026-05-05 13:46 | 27.31306 | 120.31829 | 24673 ft | 508 kts | 28° |
| 2026-05-05 13:47 | 27.34300 | 120.33946 | 24670 ft | 508 kts | 28° |
| 2026-05-05 13:47 | 27.37304 | 120.36071 | 24675 ft | 508 kts | 28° |
| 2026-05-05 13:47 | 27.40264 | 120.38171 | 24672 ft | 509 kts | 28° |
| 2026-05-05 13:47 | 27.43267 | 120.40307 | 24674 ft | 508 kts | 28° |
| 2026-05-05 13:48 | 27.46253 | 120.42434 | 24676 ft | 508 kts | 28° |
| 2026-05-05 13:48 | 27.49235 | 120.44559 | 24674 ft | 507 kts | 28° |
| 2026-05-05 13:48 | 27.52213 | 120.46682 | 24674 ft | 507 kts | 28° |
| 2026-05-05 13:48 | 27.55206 | 120.48816 | 24669 ft | 507 kts | 28° |
| 2026-05-05 13:49 | 27.58220 | 120.50962 | 24677 ft | 518 kts | 28° |
| 2026-05-05 13:49 | 27.61307 | 120.53159 | 24674 ft | 528 kts | 28° |
| 2026-05-05 13:49 | 27.64400 | 120.55362 | 24672 ft | 531 kts | 28° |
| 2026-05-05 13:49 | 27.67524 | 120.57593 | 24677 ft | 531 kts | 28° |
| 2026-05-05 13:50 | 27.70674 | 120.59785 | 24666 ft | 530 kts | 26° |
| 2026-05-05 13:50 | 27.73924 | 120.61767 | 24668 ft | 528 kts | 20° |
| 2026-05-05 13:50 | 27.77354 | 120.63125 | 24673 ft | 519 kts | 8° |
| 2026-05-05 13:50 | 27.80891 | 120.63851 | 24679 ft | 512 kts | 2° |
| 2026-05-05 13:51 | 27.84395 | 120.64288 | 24676 ft | 509 kts | 359° |
| 2026-05-05 13:51 | 27.87944 | 120.64592 | 24669 ft | 508 kts | 358° |
| 2026-05-05 13:51 | 27.91495 | 120.64837 | 24672 ft | 510 kts | 357° |
| 2026-05-05 13:51 | 27.95007 | 120.65066 | 24679 ft | 508 kts | 358° |
| 2026-05-05 13:52 | 27.98550 | 120.65310 | 24671 ft | 506 kts | 359° |
| 2026-05-05 13:52 | 28.02063 | 120.65575 | 24672 ft | 508 kts | 359° |
| 2026-05-05 13:52 | 28.05588 | 120.65868 | 24673 ft | 507 kts | 359° |
| 2026-05-05 13:52 | 28.09132 | 120.66187 | 24675 ft | 508 kts | 359° |
| 2026-05-05 13:53 | 28.12645 | 120.66521 | 24673 ft | 506 kts | 0° |
| 2026-05-05 13:53 | 28.16219 | 120.66872 | 24669 ft | 506 kts | 0° |
| 2026-05-05 13:53 | 28.19730 | 120.67220 | 24674 ft | 507 kts | 0° |
| 2026-05-05 13:53 | 28.23265 | 120.67571 | 24675 ft | 506 kts | 0° |
| 2026-05-05 13:54 | 28.26771 | 120.67921 | 24672 ft | 504 kts | 0° |
| 2026-05-05 13:54 | 28.30253 | 120.68269 | 24673 ft | 504 kts | 0° |
| 2026-05-05 13:54 | 28.33765 | 120.68617 | 24676 ft | 503 kts | 0° |
| 2026-05-05 13:54 | 28.37242 | 120.68961 | 24678 ft | 503 kts | 0° |
| 2026-05-05 13:55 | 28.40733 | 120.69306 | 24676 ft | 501 kts | 0° |
| 2026-05-05 13:55 | 28.44223 | 120.69650 | 24675 ft | 503 kts | 0° |
| 2026-05-05 13:55 | 28.47702 | 120.69994 | 24676 ft | 501 kts | 0° |
| 2026-05-05 13:55 | 28.51178 | 120.70342 | 24681 ft | 503 kts | 0° |
| 2026-05-05 13:56 | 28.54634 | 120.70688 | 24682 ft | 502 kts | 0° |
| 2026-05-05 13:56 | 28.58115 | 120.71041 | 24681 ft | 500 kts | 1° |
| 2026-05-05 13:56 | 28.61581 | 120.71393 | 24682 ft | 500 kts | 1° |
| 2026-05-05 13:56 | 28.65077 | 120.71730 | 24676 ft | 498 kts | 359° |
| 2026-05-05 13:57 | 28.68519 | 120.71912 | 24677 ft | 495 kts | 356° |
| 2026-05-05 13:57 | 28.71940 | 120.71819 | 24675 ft | 494 kts | 352° |
| 2026-05-05 13:57 | 28.75394 | 120.71513 | 24676 ft | 491 kts | 350° |
| 2026-05-05 13:57 | 28.78775 | 120.71089 | 24675 ft | 489 kts | 348° |
| 2026-05-05 13:58 | 28.82140 | 120.70610 | 24671 ft | 488 kts | 348° |
| 2026-05-05 13:58 | 28.85508 | 120.70109 | 24668 ft | 489 kts | 348° |
| 2026-05-05 13:58 | 28.88880 | 120.69607 | 24670 ft | 489 kts | 348° |
| 2026-05-05 13:58 | 28.92283 | 120.69111 | 24674 ft | 489 kts | 348° |
| 2026-05-05 13:59 | 28.99027 | 120.68156 | 24664 ft | 488 kts | 349° |
| 2026-05-05 13:59 | 29.02367 | 120.67693 | 24669 ft | 487 kts | 349° |
| 2026-05-05 14:00 | 29.09104 | 120.66773 | 24661 ft | 482 kts | 349° |
| 2026-05-05 14:00 | 29.11337 | 120.66469 | 24663 ft | 484 kts | 349° |
| 2026-05-05 14:00 | 29.15797 | 120.65863 | 24665 ft | 482 kts | 349° |
| 2026-05-05 14:00 | 29.19152 | 120.65406 | 24649 ft | 481 kts | 349° |
| 2026-05-05 14:01 | 29.22453 | 120.64957 | 24668 ft | 482 kts | 349° |
| 2026-05-05 14:01 | 29.25786 | 120.64501 | 24656 ft | 479 kts | 350° |
| 2026-05-05 14:01 | 29.29098 | 120.64050 | 24648 ft | 479 kts | 350° |
| 2026-05-05 14:01 | 29.32426 | 120.63596 | 24646 ft | 480 kts | 349° |
| 2026-05-05 14:02 | 29.35721 | 120.63145 | 24659 ft | 481 kts | 350° |
| 2026-05-05 14:02 | 29.39041 | 120.62691 | 24652 ft | 477 kts | 350° |
| 2026-05-05 14:02 | 29.42347 | 120.62240 | 24637 ft | 476 kts | 349° |
| 2026-05-05 14:02 | 29.45613 | 120.61794 | 24648 ft | 477 kts | 350° |
| 2026-05-05 14:03 | 29.48918 | 120.61341 | 24656 ft | 476 kts | 350° |
| 2026-05-05 14:03 | 29.52212 | 120.60889 | 24658 ft | 475 kts | 350° |
| 2026-05-05 14:03 | 29.55488 | 120.60440 | 24640 ft | 474 kts | 351° |
| 2026-05-05 14:03 | 29.58783 | 120.59988 | 24644 ft | 475 kts | 350° |
| 2026-05-05 14:04 | 29.62042 | 120.59539 | 24656 ft | 475 kts | 351° |
| 2026-05-05 14:04 | 29.65347 | 120.59085 | 24634 ft | 474 kts | 351° |
| 2026-05-05 14:04 | 29.68595 | 120.58639 | 24632 ft | 473 kts | 351° |
| 2026-05-05 14:04 | 29.71869 | 120.58189 | 24639 ft | 474 kts | 351° |
| 2026-05-05 14:05 | 29.75159 | 120.57737 | 24628 ft | 472 kts | 351° |
| 2026-05-05 14:05 | 29.78445 | 120.57285 | 24624 ft | 472 kts | 351° |
| 2026-05-05 14:05 | 29.81710 | 120.56836 | 24616 ft | 473 kts | 351° |
| 2026-05-05 14:05 | 29.84936 | 120.56390 | 24612 ft | 472 kts | 351° |
| 2026-05-05 14:06 | 29.88206 | 120.55939 | 24632 ft | 473 kts | 351° |
| 2026-05-05 14:06 | 29.91483 | 120.55486 | 24613 ft | 471 kts | 351° |
| 2026-05-05 14:06 | 29.94758 | 120.55033 | 24597 ft | 471 kts | 351° |
| 2026-05-05 14:06 | 29.97983 | 120.54588 | 24598 ft | 471 kts | 351° |
| 2026-05-05 14:07 | 30.01170 | 120.54147 | 24603 ft | 472 kts | 351° |
| 2026-05-05 14:07 | 30.04385 | 120.53701 | 24599 ft | 470 kts | 351° |
| 2026-05-05 14:07 | 30.07642 | 120.53250 | 24598 ft | 471 kts | 351° |
| 2026-05-05 14:07 | 30.10919 | 120.52795 | 24597 ft | 472 kts | 351° |
| 2026-05-05 14:08 | 30.14151 | 120.52347 | 24596 ft | 471 kts | 352° |
| 2026-05-05 14:08 | 30.17424 | 120.51893 | 24593 ft | 470 kts | 351° |
| 2026-05-05 14:08 | 30.20673 | 120.51441 | 24593 ft | 471 kts | 351° |
| 2026-05-05 14:08 | 30.23936 | 120.50987 | 24589 ft | 469 kts | 352° |
| 2026-05-05 14:09 | 30.26769 | 120.50593 | 24589 ft | 469 kts | 351° |
| 2026-05-05 14:09 | 30.30014 | 120.50140 | 24589 ft | 470 kts | 352° |
| 2026-05-05 14:09 | 30.33282 | 120.49685 | 24589 ft | 469 kts | 352° |
| 2026-05-05 14:09 | 30.36535 | 120.49232 | 24593 ft | 469 kts | 352° |
| 2026-05-05 14:10 | 30.39794 | 120.48778 | 24588 ft | 469 kts | 352° |
| 2026-05-05 14:10 | 30.41329 | 120.48564 | 24585 ft | 468 kts | 352° |
| 2026-05-05 14:10 | 30.44144 | 120.48172 | 24584 ft | 467 kts | 352° |
| 2026-05-05 14:10 | 30.47410 | 120.47716 | 24588 ft | 468 kts | 352° |
| 2026-05-05 14:11 | 30.47502 | 120.47704 | 24587 ft | 468 kts | 352° |